createdAt,value
2023-03-16T00:02:11.074Z,0.68
2023-03-16T00:04:38.185Z,0.64
2023-03-16T00:07:10.036Z,0.63
2023-03-16T00:09:41.359Z,0.57
2023-03-16T00:12:15.862Z,0.57
2023-03-16T00:14:44.790Z,0.53
2023-03-16T00:17:20.538Z,0.52
2023-03-16T00:19:55.717Z,0.53
2023-03-16T00:22:25.433Z,0.58
2023-03-16T00:24:55.853Z,0.56
2023-03-16T00:27:24.933Z,0.62
2023-03-16T00:29:56.269Z,0.56
2023-03-16T00:32:32.364Z,0.55
2023-03-16T00:35:02.394Z,0.56
2023-03-16T00:37:31.477Z,0.57
2023-03-16T00:40:00.470Z,0.47
2023-03-16T00:42:30.293Z,0.32
2023-03-16T00:44:59.320Z,0.35
2023-03-16T00:47:30.123Z,0.38
2023-03-16T00:49:57.819Z,0.37
2023-03-16T00:52:25.246Z,0.42
2023-03-16T00:54:55.069Z,0.42
2023-03-16T00:57:25.428Z,0.41
2023-03-16T00:59:53.097Z,0.39
2023-03-16T01:02:24.929Z,0.45
2023-03-16T01:04:55.046Z,0.48
2023-03-16T01:07:22.761Z,0.47
2023-03-16T01:09:51.135Z,0.46
2023-03-16T01:12:19.990Z,0.43
2023-03-16T01:14:47.589Z,0.42
2023-03-16T01:17:15.609Z,0.45
2023-03-16T01:19:43.215Z,0.44
2023-03-16T01:22:11.997Z,0.38
2023-03-16T01:24:39.590Z,0.32
2023-03-16T01:27:07.746Z,0.27
2023-03-16T01:29:38.677Z,0.19
2023-03-16T01:32:06.934Z,0.14
2023-03-16T01:34:35.376Z,0.13
2023-03-16T01:37:03.576Z,0.05
2023-03-16T01:39:38.967Z,0.03
2023-03-16T01:42:07.030Z,0.08
2023-03-16T01:44:58.105Z,0.06
2023-03-16T01:47:30.431Z,0.00
2023-03-16T01:49:58.081Z,0.03
2023-03-16T01:52:33.712Z,0.01
2023-03-16T01:55:05.769Z,0.03
2023-03-16T01:57:37.307Z,0.01
2023-03-16T02:00:19.239Z,0.03
2023-03-16T02:02:59.028Z,0.12
2023-03-16T02:05:58.455Z,0.04
2023-03-16T02:08:25.601Z,0.03
2023-03-16T02:10:54.736Z,-0.02
2023-03-16T02:13:24.003Z,-0.06
2023-03-16T02:15:55.058Z,-0.12
2023-03-16T02:18:25.341Z,-0.03
2023-03-16T02:21:05.546Z,-0.05
2023-03-16T02:23:33.361Z,-0.12
2023-03-16T02:26:08.507Z,-0.18
2023-03-16T02:28:48.852Z,-0.15
2023-03-16T02:31:18.280Z,-0.11
2023-03-16T02:33:46.458Z,-0.17
2023-03-16T02:36:19.043Z,-0.28
2023-03-16T02:38:48.209Z,-0.22
2023-03-16T02:41:20.131Z,-0.30
2023-03-16T02:44:10.882Z,-0.33
2023-03-16T02:46:38.606Z,-0.34
2023-03-16T02:49:11.967Z,-0.34
2023-03-16T02:51:39.779Z,-0.45
2023-03-16T02:54:07.328Z,-0.51
2023-03-16T02:56:35.152Z,-0.56
2023-03-16T02:59:02.593Z,-0.58
2023-03-16T03:01:31.997Z,-0.63
2023-03-16T03:03:59.364Z,-0.57
2023-03-16T03:06:26.694Z,-0.51
2023-03-16T03:08:54.099Z,-0.48
2023-03-16T03:11:21.775Z,-0.40
2023-03-16T03:13:49.015Z,-0.33
2023-03-16T03:16:21.589Z,-0.36
2023-03-16T03:18:50.022Z,-0.35
2023-03-16T03:21:17.761Z,-0.30
2023-03-16T03:23:46.787Z,-0.31
2023-03-16T03:26:15.643Z,-0.25
2023-03-16T03:28:44.962Z,-0.24
2023-03-16T03:31:18.170Z,-0.16
2023-03-16T03:33:45.820Z,-0.15
2023-03-16T03:36:13.878Z,-0.09
2023-03-16T03:38:42.353Z,-0.08
2023-03-16T03:41:10.460Z,-0.08
2023-03-16T03:43:39.213Z,-0.07
2023-03-16T03:46:10.141Z,-0.05
2023-03-16T03:48:37.257Z,-0.05
2023-03-16T03:51:06.002Z,-0.02
2023-03-16T03:53:32.965Z,0.01
2023-03-16T03:56:20.593Z,0.07
2023-03-16T03:58:48.217Z,0.07
2023-03-16T04:01:23.120Z,0.09
2023-03-16T04:03:50.666Z,0.08
2023-03-16T04:06:18.819Z,-0.09
2023-03-16T04:08:45.992Z,-0.11
2023-03-16T04:11:18.363Z,-0.21
2023-03-16T04:13:45.602Z,-0.30
2023-03-16T04:16:16.449Z,-0.31
2023-03-16T04:18:46.540Z,-0.25
2023-03-16T04:21:18.141Z,-0.13
2023-03-16T04:23:48.247Z,0.03
2023-03-16T04:26:16.674Z,0.00
2023-03-16T04:28:45.782Z,-0.05
2023-03-16T04:31:16.138Z,-0.04
2023-03-16T04:33:45.983Z,0.00
2023-03-16T04:36:13.210Z,-0.02
2023-03-16T04:38:42.317Z,0.02
2023-03-16T04:41:11.665Z,0.06
2023-03-16T04:43:45.338Z,0.10
2023-03-16T04:46:19.326Z,0.17
2023-03-16T04:48:46.242Z,0.18
2023-03-16T04:51:13.280Z,0.22
2023-03-16T04:53:46.610Z,0.22
2023-03-16T04:56:24.061Z,0.33
2023-03-16T04:58:57.183Z,0.27
2023-03-16T05:01:28.588Z,0.23
2023-03-16T05:03:59.785Z,0.20
2023-03-16T05:06:29.648Z,0.21
2023-03-16T05:09:01.027Z,0.17
2023-03-16T05:11:29.918Z,0.11
2023-03-16T05:13:59.966Z,0.01
2023-03-16T05:16:27.939Z,-0.06
2023-03-16T05:18:58.572Z,-0.09
2023-03-16T05:21:32.657Z,-0.15
2023-03-16T05:24:06.230Z,-0.20
2023-03-16T05:26:34.343Z,-0.28
2023-03-16T05:29:02.224Z,-0.36
2023-03-16T05:31:34.681Z,-0.36
2023-03-16T05:34:04.913Z,-0.46
2023-03-16T05:36:32.160Z,-0.51
2023-03-16T05:39:06.419Z,-0.57
2023-03-16T05:41:37.181Z,-0.60
2023-03-16T05:44:11.421Z,-0.57
2023-03-16T05:46:57.459Z,-0.63
2023-03-16T05:49:24.953Z,-0.63
2023-03-16T05:51:52.579Z,-0.59
2023-03-16T05:54:20.642Z,-0.56
2023-03-16T05:56:48.597Z,-0.56
2023-03-16T05:59:18.237Z,-0.55
2023-03-16T06:01:51.492Z,-0.55
2023-03-16T06:04:21.974Z,-0.55
2023-03-16T06:06:49.421Z,-0.57
2023-03-16T06:09:21.631Z,-0.57
2023-03-16T06:11:48.973Z,-0.62
2023-03-16T06:14:17.772Z,-0.68
2023-03-16T06:16:46.693Z,-0.66
2023-03-16T06:19:18.191Z,-0.79
2023-03-16T06:21:48.398Z,-0.70
2023-03-16T06:24:15.550Z,-0.64
2023-03-16T06:26:42.361Z,-0.51
2023-03-16T06:29:12.374Z,-0.47
2023-03-16T06:31:41.088Z,-0.43
2023-03-16T06:34:08.062Z,-0.37
2023-03-16T06:36:35.082Z,-0.16
2023-03-16T06:39:04.546Z,0.03
2023-03-16T06:41:36.561Z,0.31
2023-03-16T06:44:04.137Z,0.47
2023-03-16T06:46:33.109Z,0.74
2023-03-16T06:49:01.753Z,0.73
2023-03-16T06:51:29.167Z,0.78
2023-03-16T06:53:56.362Z,0.83
2023-03-16T06:56:24.424Z,0.90
2023-03-16T06:58:52.011Z,0.99
2023-03-16T07:01:18.918Z,1.02
2023-03-16T07:03:46.078Z,1.05
2023-03-16T07:06:23.957Z,1.11
2023-03-16T07:08:50.780Z,1.18
2023-03-16T07:11:19.006Z,1.18
2023-03-16T07:13:45.753Z,1.13
2023-03-16T07:16:14.193Z,1.16
2023-03-16T07:18:44.594Z,1.21
2023-03-16T07:21:14.404Z,1.28
2023-03-16T07:23:41.981Z,1.24
2023-03-16T07:26:09.857Z,1.26
2023-03-16T07:28:41.170Z,1.35
2023-03-16T07:31:09.475Z,1.39
2023-03-16T07:33:39.307Z,1.57
2023-03-16T07:36:10.765Z,1.64
2023-03-16T07:38:42.663Z,1.62
2023-03-16T07:41:10.673Z,1.62
2023-03-16T07:43:37.820Z,1.62
2023-03-16T07:46:05.532Z,1.73
2023-03-16T07:48:32.748Z,1.75
2023-03-16T07:51:02.383Z,1.69
2023-03-16T07:53:30.413Z,1.87
2023-03-16T07:56:15.908Z,1.95
2023-03-16T07:58:46.193Z,2.08
2023-03-16T08:01:13.502Z,2.16
2023-03-16T08:03:40.599Z,2.18
2023-03-16T08:06:07.435Z,2.32
2023-03-16T08:08:36.003Z,2.29
2023-03-16T08:11:03.795Z,2.36
2023-03-16T08:13:44.968Z,2.45
2023-03-16T08:16:13.498Z,2.54
2023-03-16T08:18:43.727Z,2.63
2023-03-16T08:21:11.102Z,2.63
2023-03-16T08:23:37.849Z,2.64
2023-03-16T08:26:09.159Z,2.66
2023-03-16T08:28:37.867Z,2.77
2023-03-16T08:31:09.102Z,2.84
2023-03-16T08:33:44.228Z,2.88
2023-03-16T08:36:13.578Z,2.93
2023-03-16T08:38:53.534Z,2.99
2023-03-16T08:41:30.799Z,3.05
2023-03-16T08:44:00.319Z,3.12
2023-03-16T08:46:27.574Z,3.24
2023-03-16T08:48:58.030Z,3.17
2023-03-16T08:51:26.364Z,3.32
2023-03-16T08:53:54.219Z,3.47
2023-03-16T08:56:21.558Z,3.55
2023-03-16T08:58:50.498Z,3.71
2023-03-16T09:01:19.250Z,3.17
2023-03-16T09:03:46.621Z,3.45
2023-03-16T09:06:16.056Z,3.40
2023-03-16T09:08:45.530Z,3.25
2023-03-16T09:11:15.045Z,3.39
2023-03-16T09:13:43.230Z,3.42
2023-03-16T09:16:12.173Z,3.73
2023-03-16T09:18:38.930Z,3.76
2023-03-16T09:21:07.741Z,3.59
2023-03-16T09:23:34.844Z,3.69
2023-03-16T09:26:03.156Z,3.73
2023-03-16T09:28:31.452Z,3.75
2023-03-16T09:30:59.008Z,3.72
2023-03-16T09:33:26.943Z,3.95
2023-03-16T09:35:54.150Z,3.85
2023-03-16T09:38:20.924Z,3.71
2023-03-16T09:41:08.519Z,3.86
2023-03-16T09:43:53.644Z,4.06
2023-03-16T09:46:35.797Z,3.83
2023-03-16T09:49:03.901Z,4.00
2023-03-16T09:51:39.987Z,3.89
2023-03-16T09:54:39.368Z,3.89
2023-03-16T09:57:15.762Z,4.06
2023-03-16T09:59:42.524Z,4.05
2023-03-16T10:02:38.049Z,4.01
2023-03-16T10:05:14.874Z,4.40
2023-03-16T10:08:07.778Z,4.32
2023-03-16T10:11:30.402Z,4.16
2023-03-16T10:14:17.498Z,4.22
2023-03-16T10:16:50.632Z,4.31
2023-03-16T10:19:33.418Z,4.59
2023-03-16T10:22:03.619Z,4.67
2023-03-16T10:24:34.342Z,4.84
2023-03-16T10:27:01.842Z,4.85
2023-03-16T10:29:32.227Z,4.68
2023-03-16T10:32:12.378Z,4.78
2023-03-16T10:34:39.071Z,4.72
2023-03-16T10:37:06.048Z,4.79
2023-03-16T10:39:36.974Z,4.86
2023-03-16T10:42:03.680Z,4.96
2023-03-16T10:44:30.852Z,5.07
2023-03-16T10:47:08.404Z,5.18
2023-03-16T10:49:44.618Z,5.19
2023-03-16T10:52:34.555Z,4.91
2023-03-16T10:55:08.199Z,5.19
2023-03-16T10:57:41.510Z,5.44
2023-03-16T11:00:15.038Z,5.56
2023-03-16T11:02:42.847Z,5.64
2023-03-16T11:05:19.547Z,5.73
2023-03-16T11:07:55.518Z,5.70
2023-03-16T11:10:38.005Z,5.75
2023-03-16T11:13:21.046Z,5.51
2023-03-16T11:15:58.684Z,5.63
2023-03-16T11:18:43.713Z,5.68
2023-03-16T11:21:17.411Z,5.86
2023-03-16T11:23:49.879Z,5.96
2023-03-16T11:26:28.067Z,5.94
2023-03-16T11:29:02.356Z,5.92
2023-03-16T11:31:43.029Z,5.83
2023-03-16T11:34:19.474Z,5.68
2023-03-16T11:36:53.562Z,5.60
2023-03-16T11:39:40.530Z,5.72
2023-03-16T11:42:26.574Z,5.93
2023-03-16T11:45:19.903Z,6.10
2023-03-16T11:47:55.759Z,6.32
2023-03-16T11:50:35.697Z,6.47
2023-03-16T11:53:30.693Z,6.53
2023-03-16T11:56:05.580Z,6.52
2023-03-16T11:58:51.413Z,6.55
2023-03-16T12:01:23.252Z,6.69
2023-03-16T12:04:18.373Z,6.72
2023-03-16T12:07:27.079Z,6.70
2023-03-16T12:10:06.948Z,6.75
2023-03-16T12:12:43.094Z,6.93
2023-03-16T12:15:38.511Z,7.04
2023-03-16T12:18:22.195Z,7.01
2023-03-16T12:20:57.929Z,6.88
2023-03-16T12:23:31.456Z,6.81
2023-03-16T12:26:00.139Z,6.83
2023-03-16T12:28:29.571Z,6.72
2023-03-16T12:31:33.987Z,6.92
2023-03-16T12:34:26.243Z,7.00
2023-03-16T12:37:02.094Z,7.12
2023-03-16T12:39:51.693Z,7.22
2023-03-16T12:42:52.556Z,7.25
2023-03-16T12:45:23.123Z,7.03
2023-03-16T12:48:04.369Z,7.11
2023-03-16T12:50:31.942Z,7.26
2023-03-16T12:52:58.806Z,7.31
2023-03-16T12:55:48.234Z,7.41
2023-03-16T12:58:17.883Z,7.58
2023-03-16T13:00:56.878Z,7.18
2023-03-16T13:03:25.874Z,7.34
2023-03-16T13:05:56.397Z,7.32
2023-03-16T13:08:23.889Z,7.28
2023-03-16T13:11:05.920Z,7.19
2023-03-16T13:13:34.171Z,7.34
2023-03-16T13:16:12.619Z,7.22
2023-03-16T13:18:45.485Z,7.16
2023-03-16T13:21:26.307Z,7.47
2023-03-16T13:24:18.120Z,7.40
2023-03-16T13:26:50.241Z,7.38
2023-03-16T13:29:24.121Z,7.34
2023-03-16T13:31:52.661Z,7.38
2023-03-16T13:34:29.888Z,7.24
2023-03-16T13:36:58.835Z,7.26
2023-03-16T13:39:27.833Z,7.28
2023-03-16T13:41:57.357Z,7.19
2023-03-16T13:44:25.259Z,7.31
2023-03-16T13:46:53.217Z,7.51
2023-03-16T13:49:20.947Z,7.45
2023-03-16T13:51:48.697Z,7.32
2023-03-16T13:54:31.688Z,7.37
2023-03-16T13:57:03.593Z,7.37
2023-03-16T13:59:32.022Z,7.36
2023-03-16T14:02:02.123Z,7.33
2023-03-16T14:04:31.653Z,7.28
2023-03-16T14:07:00.616Z,7.31
2023-03-16T14:09:35.062Z,7.40
2023-03-16T14:12:02.674Z,7.43
2023-03-16T14:14:39.703Z,7.46
2023-03-16T14:17:16.437Z,7.42
2023-03-16T14:19:47.056Z,7.41
2023-03-16T14:22:17.405Z,7.42
2023-03-16T14:24:46.025Z,7.36
2023-03-16T14:27:33.010Z,7.12
2023-03-16T14:30:15.808Z,7.12
2023-03-16T14:32:54.821Z,7.01
2023-03-16T14:35:22.982Z,7.08
2023-03-16T14:37:51.858Z,7.29
2023-03-16T14:40:28.812Z,7.22
2023-03-16T14:42:58.664Z,7.16
2023-03-16T14:45:33.967Z,7.24
2023-03-16T14:48:17.597Z,7.14
2023-03-16T14:50:45.217Z,7.25
2023-03-16T14:53:12.676Z,7.28
2023-03-16T14:55:39.951Z,7.28
2023-03-16T14:58:06.873Z,7.23
2023-03-16T15:00:39.870Z,7.20
2023-03-16T15:03:17.982Z,7.26
2023-03-16T15:05:50.515Z,7.28
2023-03-16T15:08:31.511Z,7.24
2023-03-16T15:11:01.405Z,7.25
2023-03-16T15:13:37.576Z,7.30
2023-03-16T15:16:05.966Z,7.25
2023-03-16T15:18:33.676Z,7.07
2023-03-16T15:21:02.663Z,7.07
2023-03-16T15:23:31.087Z,6.99
2023-03-16T15:26:03.061Z,7.03
2023-03-16T15:28:30.317Z,7.01
2023-03-16T15:30:59.962Z,7.02
2023-03-16T15:33:27.524Z,7.02
2023-03-16T15:35:57.282Z,7.02
2023-03-16T15:38:32.449Z,6.94
2023-03-16T15:40:59.844Z,6.86
2023-03-16T15:43:29.200Z,6.88
2023-03-16T15:45:57.489Z,6.81
2023-03-16T15:48:25.491Z,6.82
2023-03-16T15:51:28.198Z,6.81
2023-03-16T15:53:58.634Z,6.81
2023-03-16T15:56:30.299Z,6.72
2023-03-16T15:59:00.497Z,6.77
2023-03-16T16:01:35.100Z,6.73
2023-03-16T16:04:01.924Z,6.73
2023-03-16T16:06:30.454Z,6.71
2023-03-16T16:08:57.820Z,6.63
2023-03-16T16:11:26.525Z,6.57
2023-03-16T16:13:55.506Z,6.57
2023-03-16T16:16:24.079Z,6.60
2023-03-16T16:18:50.998Z,6.52
2023-03-16T16:21:23.060Z,6.42
2023-03-16T16:23:50.905Z,6.42
2023-03-16T16:26:27.826Z,6.40
2023-03-16T16:28:59.294Z,6.43
2023-03-16T16:31:28.399Z,6.37
2023-03-16T16:33:55.874Z,6.28
2023-03-16T16:36:22.862Z,6.26
2023-03-16T16:38:50.436Z,6.20
2023-03-16T16:41:31.152Z,6.06
2023-03-16T16:43:59.502Z,5.96
2023-03-16T16:46:28.626Z,5.90
2023-03-16T16:49:06.340Z,5.76
2023-03-16T16:51:33.657Z,5.68
2023-03-16T16:54:02.150Z,5.63
2023-03-16T16:56:31.994Z,5.46
2023-03-16T16:59:02.701Z,5.32
2023-03-16T17:01:35.415Z,5.17
2023-03-16T17:04:03.356Z,5.08
2023-03-16T17:06:30.934Z,4.93
2023-03-16T17:08:57.705Z,4.70
2023-03-16T17:11:30.112Z,4.53
2023-03-16T17:13:59.535Z,4.43
2023-03-16T17:16:27.911Z,4.31
2023-03-16T17:18:55.614Z,4.16
2023-03-16T17:21:23.817Z,4.09
2023-03-16T17:23:52.795Z,4.01
2023-03-16T17:26:23.239Z,3.87
2023-03-16T17:28:53.896Z,3.80
2023-03-16T17:31:24.370Z,3.72
2023-03-16T17:33:52.925Z,3.50
2023-03-16T17:36:21.259Z,3.19
2023-03-16T17:38:48.456Z,3.17
2023-03-16T17:41:24.248Z,3.16
2023-03-16T17:43:54.756Z,3.05
2023-03-16T17:46:24.947Z,2.92
2023-03-16T17:48:53.064Z,3.03
2023-03-16T17:51:21.239Z,2.97
2023-03-16T17:53:48.128Z,2.88
2023-03-16T17:56:22.816Z,2.66
2023-03-16T17:58:53.227Z,2.66
2023-03-16T18:01:23.073Z,2.65
2023-03-16T18:03:50.719Z,2.56
2023-03-16T18:06:25.270Z,2.51
2023-03-16T18:08:52.931Z,2.47
2023-03-16T18:11:23.482Z,2.40
2023-03-16T18:13:52.238Z,2.44
2023-03-16T18:16:28.564Z,2.27
2023-03-16T18:18:59.964Z,2.21
2023-03-16T18:21:27.367Z,2.11
2023-03-16T18:23:54.490Z,2.01
2023-03-16T18:26:21.850Z,1.97
2023-03-16T18:28:48.589Z,1.99
2023-03-16T18:31:25.014Z,1.73
2023-03-16T18:34:02.831Z,1.66
2023-03-16T18:36:32.272Z,1.66
2023-03-16T18:39:01.980Z,1.68
2023-03-16T18:41:31.803Z,1.64
2023-03-16T18:44:01.376Z,1.56
2023-03-16T18:46:31.094Z,1.54
2023-03-16T18:49:28.005Z,1.55
2023-03-16T18:51:55.173Z,1.51
2023-03-16T18:54:23.713Z,1.48
2023-03-16T18:56:51.020Z,1.55
2023-03-16T18:59:17.863Z,1.44
2023-03-16T19:01:45.506Z,1.44
2023-03-16T19:04:31.241Z,1.43
2023-03-16T19:06:58.171Z,1.49
2023-03-16T19:09:28.527Z,1.56
2023-03-16T19:11:55.780Z,1.62
2023-03-16T19:14:24.865Z,1.62
2023-03-16T19:16:52.442Z,1.55
2023-03-16T19:19:21.978Z,1.54
2023-03-16T19:21:53.841Z,1.51
2023-03-16T19:24:30.024Z,1.52
2023-03-16T19:26:56.959Z,1.50
2023-03-16T19:29:33.699Z,1.52
2023-03-16T19:32:01.976Z,1.55
2023-03-16T19:34:29.348Z,1.51
2023-03-16T19:36:56.626Z,1.47
2023-03-16T19:39:23.547Z,1.45
2023-03-16T19:41:56.090Z,1.46
2023-03-16T19:44:25.479Z,1.39
2023-03-16T19:46:53.364Z,1.44
2023-03-16T19:49:26.104Z,1.32
2023-03-16T19:51:54.903Z,1.23
2023-03-16T19:54:32.212Z,1.12
2023-03-16T19:57:04.181Z,1.04
2023-03-16T19:59:33.635Z,1.00
2023-03-16T20:02:01.520Z,0.97
2023-03-16T20:04:29.782Z,0.92
2023-03-16T20:06:57.501Z,0.84
2023-03-16T20:09:24.792Z,0.65
2023-03-16T20:11:52.152Z,0.66
2023-03-16T20:14:22.527Z,0.64
2023-03-16T20:16:50.273Z,0.63
2023-03-16T20:19:18.120Z,0.60
2023-03-16T20:21:46.960Z,0.67
2023-03-16T20:24:17.005Z,0.60
2023-03-16T20:26:45.975Z,0.52
2023-03-16T20:29:19.362Z,0.43
2023-03-16T20:31:47.986Z,0.42
2023-03-16T20:34:21.624Z,0.40
2023-03-16T20:36:48.904Z,0.37
2023-03-16T20:39:17.585Z,0.28
2023-03-16T20:41:44.856Z,0.29
2023-03-16T20:44:18.761Z,0.32
2023-03-16T20:46:46.069Z,0.26
2023-03-16T20:49:22.900Z,0.16
2023-03-16T20:51:50.927Z,0.11
2023-03-16T20:54:19.107Z,0.09
2023-03-16T20:56:47.161Z,0.15
2023-03-16T20:59:22.036Z,0.10
2023-03-16T21:01:49.756Z,0.17
2023-03-16T21:04:22.835Z,0.27
2023-03-16T21:06:51.215Z,0.34
2023-03-16T21:09:19.766Z,0.29
2023-03-16T21:11:48.083Z,0.03
2023-03-16T21:14:22.624Z,-0.15
2023-03-16T21:16:49.871Z,-0.11
2023-03-16T21:19:23.121Z,-0.04
2023-03-16T21:21:51.029Z,-0.07
2023-03-16T21:24:18.150Z,-0.12
2023-03-16T21:26:45.611Z,-0.12
2023-03-16T21:29:16.075Z,-0.19
2023-03-16T21:31:43.105Z,-0.21
2023-03-16T21:34:31.782Z,-0.42
2023-03-16T21:36:59.580Z,-0.46
2023-03-16T21:39:27.454Z,-0.49
2023-03-16T21:41:54.671Z,-0.40
2023-03-16T21:44:22.126Z,-0.39
2023-03-16T21:46:50.087Z,-0.41
2023-03-16T21:49:17.020Z,-0.46
2023-03-16T21:51:43.990Z,-0.49
2023-03-16T21:54:14.951Z,-0.50
2023-03-16T21:56:42.377Z,-0.71
2023-03-16T21:59:11.135Z,-0.65
2023-03-16T22:01:54.388Z,-0.68
2023-03-16T22:04:26.912Z,-0.71
2023-03-16T22:06:53.792Z,-0.69
2023-03-16T22:09:22.658Z,-0.73
2023-03-16T22:11:50.217Z,-0.73
2023-03-16T22:14:17.002Z,-0.68
2023-03-16T22:16:43.984Z,-0.67
2023-03-16T22:19:17.962Z,-0.68
2023-03-16T22:21:45.128Z,-0.75
2023-03-16T22:24:18.893Z,-0.88
2023-03-16T22:26:46.524Z,-0.90
2023-03-16T22:29:28.531Z,-0.89
2023-03-16T22:32:04.357Z,-0.90
2023-03-16T22:34:32.712Z,-1.02
2023-03-16T22:37:01.750Z,-0.99
2023-03-16T22:39:32.208Z,-0.95
2023-03-16T22:42:00.420Z,-0.98
2023-03-16T22:44:28.050Z,-0.92
2023-03-16T22:46:56.282Z,-0.98
2023-03-16T22:49:28.557Z,-1.09
2023-03-16T22:51:57.346Z,-1.09
2023-03-16T22:54:28.121Z,-1.01
2023-03-16T22:56:55.922Z,-1.01
2023-03-16T22:59:24.536Z,-1.10
2023-03-16T23:01:52.194Z,-1.00
2023-03-16T23:04:22.594Z,-1.05
2023-03-16T23:06:53.907Z,-1.11
2023-03-16T23:09:22.049Z,-1.09
2023-03-16T23:11:54.455Z,-1.16
2023-03-16T23:14:24.310Z,-1.20
2023-03-16T23:16:53.054Z,-1.22
2023-03-16T23:19:34.751Z,-1.23
2023-03-16T23:22:07.133Z,-1.18
2023-03-16T23:24:37.253Z,-1.14
2023-03-16T23:27:05.548Z,-1.16
2023-03-16T23:29:32.412Z,-1.15
2023-03-16T23:31:59.246Z,-1.17
2023-03-16T23:34:26.394Z,-1.24
2023-03-16T23:36:53.525Z,-1.20
2023-03-16T23:39:20.538Z,-1.26
2023-03-16T23:41:48.926Z,-1.28
2023-03-16T23:44:17.974Z,-1.28
2023-03-16T23:46:45.327Z,-1.34
2023-03-16T23:49:18.826Z,-1.30
2023-03-16T23:51:47.256Z,-1.35
2023-03-16T23:54:19.674Z,-1.43
2023-03-16T23:56:47.341Z,-1.47
2023-03-16T23:59:14.667Z,-1.53
